EDT,Max TemperatureF,Mean TemperatureF,Min TemperatureF,Max Dew PointF,MeanDew PointF,Min DewpointF,Max Humidity, Mean Humidity, Min Humidity, Max Sea Level PressureIn, Mean Sea Level PressureIn, Min Sea Level PressureIn, Max VisibilityMiles, Mean VisibilityMiles, Min VisibilityMiles, Max Wind SpeedMPH, Mean Wind SpeedMPH, Max Gust SpeedMPH,PrecipitationIn, CloudCover, Events, WindDirDegrees
2012-3-1,33,30,26,30,27,21,87,83,74,29.99,29.80,29.68,10,6,1,17,10,30,0.16,8,Rain-Snow,55
2012-3-2,35,30,24,30,24,19,87,80,69,30.14,30.05,29.87,10,9,2,14,8,21,0.09,8,Snow,105
2012-3-3,53,43,33,43,31,16,93,71,27,29.94,29.62,29.43,10,6,0,14,8,30,0.12,5,Fog-Rain,211
2012-3-4,42,36,30,19,17,14,60,46,33,29.71,29.66,29.56,10,10,10,13,7,23,0.00,4,,290
2012-3-5,37,29,21,16,8,1,55,44,24,30.35,29.99,29.72,10,10,10,16,9,21,0.00,0,,304
2012-3-6,37,28,19,25,8,1,75,49,26,30.60,30.50,30.36,10,10,10,13,9,22,0.00,0,,311
2012-3-7,55,42,30,37,22,-134,75,61,4,30.58,30.47,30.32,10,10,10,13,7,20,0.00,0,,222
2012-3-8,64,54,44,46,43,39,82,72,45,30.33,30.10,29.82,10,10,10,17,9,28,0.00,2,,218
2012-3-9,55,42,30,46,25,12,87,60,29,30.22,30.04,29.80,10,10,4,20,10,33,0.03,4,,307
2012-3-10,37,30,24,16,10,3,59,44,33,30.53,30.39,30.22,10,10,10,14,7,29,0.00,1,,315
2012-3-11,57,42,28,30,22,12,64,50,26,30.52,30.42,30.32,10,10,10,12,5,21,0.00,0,,226
2012-3-12,69,56,42,36,30,27,57,45,20,30.34,30.25,30.15,10,10,10,10,4,,0.00,1,,226
2012-3-13,66,57,48,54,45,36,88,70,51,30.15,30.04,29.93,10,9,2,13,5,18,0.00,6,Rain,210
2012-3-14,64,55,46,48,36,21,82,54,19,30.23,30.10,29.98,10,10,10,12,6,18,0.00,0,,348
2012-3-15,48,44,39,37,36,30,87,78,53,30.35,30.31,30.24,10,8,2,13,5,,0.00,7,,148
2012-3-16,46,42,37,41,36,34,93,84,76,30.32,30.24,30.14,10,7,2,9,6,,0.00,6,,159
2012-3-17,60,48,35,43,38,32,93,81,52,30.39,30.30,30.21,10,6,0,10,2,,0.00,5,,115
2012-3-18,69,54,39,48,42,36,93,80,43,30.38,30.31,30.21,10,5,0,9,4,,0.00,3,Fog,231
2012-3-19,75,60,46,59,47,41,87,74,38,30.27,30.22,30.17,10,7,2,15,4,,0.00,0,,223
2012-3-20,71,58,46,55,49,43,94,79,53,30.36,30.31,30.26,10,8,0,9,4,17,0.00,1,Fog,203
2012-3-21,68,60,53,57,54,50,94,86,64,30.40,30.35,30.30,10,4,0,12,2,,0.00,7,Fog,226
2012-3-22,75,65,55,55,54,52,94,79,47,30.32,30.21,30.09,10,6,0,12,3,,0.00,4,Fog,254
2012-3-23,71,60,48,55,49,41,82,66,33,30.16,30.09,30.06,10,10,10,12,5,18,0.00,1,,6
2012-3-24,59,52,46,46,27,19,67,37,26,30.13,30.08,30.02,10,10,10,14,7,21,0.00,5,,105
2012-3-25,46,42,39,39,32,21,81,66,37,30.03,29.88,29.73,10,9,1,12,4,,0.06,7,Rain,64
2012-3-26,48,39,30,41,23,1,93,56,25,30.08,29.82,29.69,10,10,10,29,7,46,0.00,2,,340
2012-3-27,44,34,24,9,2,0,35,29,18,30.23,30.16,30.08,10,10,7,21,13,29,0.00,0,,338
2012-3-28,59,46,33,43,26,7,81,52,28,30.17,29.87,29.57,10,10,5,14,4,18,0.00,5,Rain-Thunderstorm,201
2012-3-29,53,46,39,43,33,25,71,60,46,29.99,29.75,29.59,10,10,10,17,10,29,0.00,7,,331
2012-3-30,48,40,33,27,18,10,53,42,22,30.10,30.02,29.99,20,12,10,16,10,23,0.00,4,,327
2012-3-31,42,38,33,34,31,27,93,80,53,30.04,29.95,29.90,10,8,2,9,4,,0.12,8,Rain,88